Herzele, Belgium
Current Conditions -  °F | °C
As of 9:33 PM on Friday 28 Nov 2014 (Local Time) from EBCV Reporting Station
Scattered Clouds Scattered Clouds  
Wind Chill: 43°   Ceiling: Unl
Heat Index: 46°   Visibility: 4mi
Dew Point: 43°   Wind: 7mph
Humidity: 87%   Direction: 80°E
Pressure: 29.74"   Gusts: NA
Location:  50.89°N, 3.89°E
Report Text: EBCV 282033Z AUTO 08006KT 7000 FEW110/// SCT120/// 08/06 Q1007 WHT
Loading
Personal Weather Stations






























Interactive Weather Map New forecast layout! Learn more

10-Day Weather Forecast

Advertisements
Track Severe Weather on mobile